Time;durP1;ratioP1;P1;durP2;ratioP2;P2;SDS_P1;SDS_P2;PMS_P1;PMS_P2;Temp;Humidity;BMP_temperature;BMP_pressure;BME280_temperature;BME280_humidity;BME280_pressure;Samples;Min_cycle;Max_cycle;Signal;HPM_P1;HPM_P2
2022/01/19 00:01:02;;;;;;;32.20;18.67;;;;;;;;;;5138353;27;20944;-75
2022/01/19 00:03:30;;;;;;;33.80;19.23;;;;;;;;;;5138604;27;20807;-75
2022/01/19 00:05:58;;;;;;;31.33;17.97;;;;;;;;;;5138396;27;20450;-75
2022/01/19 00:08:28;;;;;;;29.37;17.30;;;;;;;;;;5139026;27;20442;-75
2022/01/19 00:10:57;;;;;;;34.63;18.10;;;;;;;;;;5139019;27;20456;-75
2022/01/19 00:13:25;;;;;;;30.70;16.97;;;;;;;;;;5138859;27;20787;-75
2022/01/19 00:15:53;;;;;;;35.23;19.10;;;;;;;;;;5138233;27;20981;-75
2022/01/19 00:18:23;;;;;;;35.37;19.07;;;;;;;;;;5138528;27;20481;-75
2022/01/19 00:20:51;;;;;;;31.33;19.20;;;;;;;;;;5138752;27;20455;-75
2022/01/19 00:23:20;;;;;;;36.03;18.17;;;;;;;;;;5138780;27;20446;-74
2022/01/19 00:25:50;;;;;;;30.67;17.90;;;;;;;;;;5138707;27;20456;-75
2022/01/19 00:28:18;;;;;;;33.27;18.70;;;;;;;;;;5138459;27;20934;-75
2022/01/19 00:30:47;;;;;;;32.73;18.60;;;;;;;;;;5138171;28;20805;-75
2022/01/19 00:33:15;;;;;;;32.20;18.37;;;;;;;;;;5138319;28;20529;-75
2022/01/19 00:35:43;;;;;;;26.13;17.63;;;;;;;;;;5138467;28;20452;-75
2022/01/19 00:38:11;;;;;;;35.33;19.13;;;;;;;;;;5138359;28;20488;-75
2022/01/19 00:40:39;;;;;;;37.13;19.63;;;;;;;;;;5138497;28;20434;-75
2022/01/19 00:43:14;;;;;;;29.93;18.07;;;;;;;;;;5138517;28;20454;-75
2022/01/19 00:45:42;;;;;;;35.83;18.97;;;;;;;;;;5137724;28;20967;-75
2022/01/19 00:48:25;;;;;;;31.10;18.83;;;;;;;;;;5138064;28;20550;-75
2022/01/19 00:50:53;;;;;;;43.53;20.23;;;;;;;;;;5137954;28;20480;-74
2022/01/19 00:53:21;;;;;;;37.93;19.50;;;;;;;;;;5138353;27;20502;-75
2022/01/19 00:55:49;;;;;;;37.07;19.43;;;;;;;;;;5137259;28;20434;-75
2022/01/19 00:58:19;;;;;;;31.67;18.33;;;;;;;;;;5137765;28;20477;-74
2022/01/19 01:00:47;;;;;;;34.13;19.30;;;;;;;;;;5138279;27;20521;-75
2022/01/19 01:03:15;;;;;;;36.60;20.93;;;;;;;;;;5137770;28;20494;-74
2022/01/19 01:05:44;;;;;;;34.47;19.97;;;;;;;;;;5139699;27;20439;-75
2022/01/19 01:08:12;;;;;;;33.43;19.63;;;;;;;;;;5134699;28;20438;-75
2022/01/19 01:10:43;;;;;;;30.27;17.80;;;;;;;;;;5140485;27;20441;-75
2022/01/19 01:13:22;;;;;;;32.07;18.53;;;;;;;;;;5137793;27;20449;-75
2022/01/19 01:16:02;;;;;;;30.73;18.60;;;;;;;;;;5136128;27;20462;-75
2022/01/19 01:18:30;;;;;;;31.67;18.93;;;;;;;;;;5138289;27;20469;-75
2022/01/19 01:20:59;;;;;;;34.00;17.80;;;;;;;;;;5143503;27;20436;-74
2022/01/19 01:23:28;;;;;;;32.90;18.57;;;;;;;;;;5139620;27;20862;-75
2022/01/19 01:25:56;;;;;;;32.80;19.17;;;;;;;;;;5138685;27;20818;-74
2022/01/19 01:28:25;;;;;;;32.47;18.63;;;;;;;;;;5142769;27;21237;-74
2022/01/19 01:30:55;;;;;;;32.13;18.93;;;;;;;;;;5143809;27;20849;-75
2022/01/19 01:33:22;;;;;;;33.27;18.10;;;;;;;;;;5143661;27;20448;-74
2022/01/19 01:35:51;;;;;;;30.60;18.83;;;;;;;;;;5138669;27;20437;-75
2022/01/19 01:38:19;;;;;;;38.53;20.93;;;;;;;;;;5141955;27;20473;-74
2022/01/19 01:41:08;;;;;;;33.87;19.23;;;;;;;;;;5141202;27;20430;-75
2022/01/19 01:43:37;;;;;;;31.23;18.77;;;;;;;;;;5140278;27;20434;-74
2022/01/19 01:46:16;;;;;;;29.27;17.13;;;;;;;;;;5141684;27;20514;-75
2022/01/19 01:48:46;;;;;;;30.83;16.43;;;;;;;;;;5137409;27;20513;-74
2022/01/19 01:54:00;;;;;;;31.13;18.57;;;;;;;;;;5140749;27;20436;-74
2022/01/19 01:56:28;;;;;;;32.37;18.97;;;;;;;;;;5139894;27;21307;-74
2022/01/19 01:58:56;;;;;;;33.93;18.83;;;;;;;;;;5138939;27;20473;-74
2022/01/19 02:01:26;;;;;;;31.83;17.93;;;;;;;;;;5139925;27;20431;-74
2022/01/19 02:03:54;;;;;;;33.53;18.57;;;;;;;;;;5140085;27;20442;-74
2022/01/19 02:06:31;;;;;;;34.80;19.07;;;;;;;;;;5140418;27;20460;-74
2022/01/19 02:09:06;;;;;;;36.10;18.23;;;;;;;;;;5141708;27;20437;-75
2022/01/19 02:23:00;;;;;;;32.63;18.80;;;;;;;;;;5140998;27;20451;-74
2022/01/19 02:25:34;;;;;;;31.17;19.73;;;;;;;;;;5140800;27;20803;-74
2022/01/19 02:41:41;;;;;;;38.70;21.90;;;;;;;;;;5139769;27;20457;-74
2022/01/19 02:44:12;;;;;;;41.57;21.70;;;;;;;;;;5139704;27;20448;-74
2022/01/19 02:49:08;;;;;;;41.37;22.37;;;;;;;;;;5138541;27;20457;-75
2022/01/19 02:49:30;;;;;;;40.87;20.90;;;;;;;;;;5138106;27;20466;-74
2022/01/19 02:51:59;;;;;;;48.93;22.43;;;;;;;;;;5140273;27;20924;-74
2022/01/19 02:54:28;;;;;;;37.57;20.80;;;;;;;;;;5139805;27;20536;-74
2022/01/19 02:57:00;;;;;;;38.43;20.33;;;;;;;;;;5140057;27;20489;-74
2022/01/19 02:59:37;;;;;;;44.13;21.47;;;;;;;;;;5140279;27;20469;-74
2022/01/19 03:10:31;;;;;;;37.20;21.07;;;;;;;;;;5138167;27;20442;-74
2022/01/19 03:12:59;;;;;;;35.13;20.20;;;;;;;;;;5138198;27;20448;-74
2022/01/19 03:15:28;;;;;;;36.53;20.80;;;;;;;;;;5138284;27;20448;-74
2022/01/19 03:17:58;;;;;;;31.73;19.33;;;;;;;;;;5137908;27;20577;-74
2022/01/19 03:20:27;;;;;;;35.73;21.10;;;;;;;;;;5137810;27;20833;-74
2022/01/19 03:23:02;;;;;;;39.13;20.83;;;;;;;;;;5136538;27;20511;-74
2022/01/19 03:25:36;;;;;;;31.67;19.03;;;;;;;;;;5133700;27;20441;-74
2022/01/19 03:28:04;;;;;;;35.03;19.37;;;;;;;;;;5139825;27;20446;-74
2022/01/19 03:30:32;;;;;;;36.53;20.77;;;;;;;;;;5139240;27;20947;-74
2022/01/19 03:33:01;;;;;;;29.27;18.70;;;;;;;;;;5139548;27;20502;-73
2022/01/19 03:35:29;;;;;;;33.07;18.70;;;;;;;;;;5139529;27;20442;-74
2022/01/19 03:37:58;;;;;;;32.33;18.87;;;;;;;;;;5139950;27;20449;-74
2022/01/19 03:40:26;;;;;;;32.70;17.63;;;;;;;;;;5139131;27;20426;-74
2022/01/19 03:42:54;;;;;;;31.63;18.10;;;;;;;;;;5139650;27;20448;-74
2022/01/19 03:45:22;;;;;;;34.47;17.90;;;;;;;;;;5139417;27;20448;-74
2022/01/19 03:47:55;;;;;;;25.73;16.67;;;;;;;;;;5138795;27;20470;-74
2022/01/19 03:50:23;;;;;;;31.33;18.50;;;;;;;;;;5139039;27;20473;-74
2022/01/19 03:52:51;;;;;;;31.40;17.67;;;;;;;;;;5139295;27;20536;-74
2022/01/19 03:55:21;;;;;;;28.77;17.87;;;;;;;;;;5139007;27;20776;-74
2022/01/19 03:57:49;;;;;;;32.20;18.33;;;;;;;;;;5139190;27;20534;-74
2022/01/19 04:00:18;;;;;;;30.60;16.93;;;;;;;;;;5145237;27;20800;-74
2022/01/19 04:02:47;;;;;;;32.13;18.03;;;;;;;;;;5159725;27;20524;-74
2022/01/19 04:05:21;;;;;;;30.67;17.63;;;;;;;;;;5125989;27;20523;-74
2022/01/19 04:07:49;;;;;;;30.37;18.63;;;;;;;;;;5138731;27;20464;-74
2022/01/19 04:10:17;;;;;;;27.77;18.77;;;;;;;;;;5139156;27;20448;-74
2022/01/19 04:12:53;;;;;;;29.70;16.37;;;;;;;;;;5138922;27;20446;-74
2022/01/19 04:15:21;;;;;;;25.30;16.97;;;;;;;;;;5139030;27;20455;-74
2022/01/19 04:17:52;;;;;;;29.50;16.90;;;;;;;;;;5138355;27;20456;-74
2022/01/19 04:20:24;;;;;;;29.27;17.90;;;;;;;;;;5138628;27;20485;-74
2022/01/19 04:22:54;;;;;;;30.40;17.17;;;;;;;;;;5138584;27;20517;-74
2022/01/19 04:25:22;;;;;;;29.90;18.07;;;;;;;;;;5138592;27;20442;-74
2022/01/19 04:27:52;;;;;;;38.17;18.87;;;;;;;;;;5138580;27;20964;-74
2022/01/19 04:30:21;;;;;;;34.60;18.13;;;;;;;;;;5138638;28;20433;-74
2022/01/19 04:33:01;;;;;;;31.87;18.07;;;;;;;;;;5138314;28;20533;-74
2022/01/19 04:35:31;;;;;;;31.23;18.13;;;;;;;;;;5138406;28;20537;-74
2022/01/19 04:38:30;;;;;;;35.73;19.73;;;;;;;;;;5138417;28;20476;-74
2022/01/19 05:03:18;;;;;;;32.47;18.30;;;;;;;;;;5163053;27;20447;-74
2022/01/19 05:05:53;;;;;;;34.50;19.23;;;;;;;;;;5163089;27;20941;-74
2022/01/19 05:08:39;;;;;;;35.10;19.87;;;;;;;;;;5163009;27;20455;-74
2022/01/19 05:13:53;;;;;;;33.03;17.90;;;;;;;;;;5163118;27;20447;-74
2022/01/19 05:16:23;;;;;;;35.17;18.17;;;;;;;;;;5162424;27;20456;-74
2022/01/19 05:18:52;;;;;;;41.93;19.13;;;;;;;;;;5155555;27;20564;-74
2022/01/19 05:21:20;;;;;;;46.47;20.27;;;;;;;;;;5142019;27;20830;-74
2022/01/19 05:23:49;;;;;;;33.57;18.27;;;;;;;;;;5139568;27;20454;-73
2022/01/19 05:26:17;;;;;;;41.03;18.63;;;;;;;;;;5127293;27;20557;-74
2022/01/19 05:28:45;;;;;;;40.70;20.47;;;;;;;;;;5135298;27;20446;-75
2022/01/19 05:31:13;;;;;;;41.60;19.83;;;;;;;;;;5141749;27;20498;-74
2022/01/19 05:33:43;;;;;;;36.23;18.50;;;;;;;;;;5141947;27;21004;-74
2022/01/19 05:36:11;;;;;;;31.43;17.30;;;;;;;;;;5141568;27;21063;-75
2022/01/19 05:38:39;;;;;;;39.47;19.37;;;;;;;;;;5141027;27;20441;-75
2022/01/19 05:41:07;;;;;;;38.70;19.33;;;;;;;;;;5142212;27;20438;-75
2022/01/19 05:43:35;;;;;;;38.10;20.50;;;;;;;;;;5142159;27;20795;-75
2022/01/19 05:46:03;;;;;;;40.00;20.17;;;;;;;;;;5140803;27;20460;-75
2022/01/19 05:48:31;;;;;;;39.27;19.17;;;;;;;;;;5143025;27;20434;-75
2022/01/19 05:51:00;;;;;;;46.07;19.20;;;;;;;;;;5142996;27;20831;-75
2022/01/19 05:53:29;;;;;;;36.73;20.60;;;;;;;;;;5142717;27;20435;-75
2022/01/19 05:56:01;;;;;;;40.27;20.40;;;;;;;;;;5139309;27;21020;-76
2022/01/19 05:58:29;;;;;;;33.97;19.33;;;;;;;;;;5138084;27;20877;-75
2022/01/19 06:00:57;;;;;;;32.83;20.03;;;;;;;;;;5139117;27;20565;-75
2022/01/19 06:03:25;;;;;;;36.57;18.40;;;;;;;;;;5140491;27;20434;-75
2022/01/19 06:05:53;;;;;;;34.70;17.70;;;;;;;;;;5141328;27;20828;-75
2022/01/19 06:08:41;;;;;;;38.33;20.37;;;;;;;;;;5139385;27;20446;-75
2022/01/19 06:11:09;;;;;;;31.40;18.30;;;;;;;;;;5138026;27;20438;-75
2022/01/19 06:13:38;;;;;;;32.23;18.53;;;;;;;;;;5140316;27;20854;-75
2022/01/19 06:16:06;;;;;;;37.77;18.70;;;;;;;;;;5139354;27;21043;-75
2022/01/19 06:18:34;;;;;;;36.97;20.53;;;;;;;;;;5136698;27;20442;-76
2022/01/19 06:21:02;;;;;;;31.37;18.03;;;;;;;;;;5138133;27;20568;-79
2022/01/19 06:23:32;;;;;;;42.47;20.60;;;;;;;;;;5139407;27;20508;-79
2022/01/19 06:26:00;;;;;;;37.17;20.57;;;;;;;;;;5154446;27;20457;-79
2022/01/19 06:28:28;;;;;;;34.17;18.37;;;;;;;;;;5161649;27;20471;-79
2022/01/19 06:30:56;;;;;;;29.83;16.53;;;;;;;;;;5161223;27;20520;-78
2022/01/19 06:33:24;;;;;;;29.80;17.83;;;;;;;;;;5161436;27;20451;-79
2022/01/19 06:35:52;;;;;;;28.47;19.17;;;;;;;;;;5161494;27;20548;-79
2022/01/19 06:38:22;;;;;;;30.27;17.43;;;;;;;;;;5161476;27;20437;-78
2022/01/19 06:40:51;;;;;;;37.73;18.77;;;;;;;;;;5161360;27;20559;-79
2022/01/19 06:43:19;;;;;;;32.23;17.27;;;;;;;;;;5161319;27;20436;-77
2022/01/19 06:45:47;;;;;;;32.70;17.60;;;;;;;;;;5161372;27;20524;-78
2022/01/19 06:48:29;;;;;;;31.37;18.13;;;;;;;;;;5138327;27;20449;-76
2022/01/19 06:50:58;;;;;;;38.00;19.67;;;;;;;;;;5148477;27;20466;-75
2022/01/19 06:53:26;;;;;;;35.17;19.20;;;;;;;;;;5146283;27;20433;-76
2022/01/19 06:55:57;;;;;;;34.60;19.23;;;;;;;;;;5147991;27;20460;-77
2022/01/19 06:58:25;;;;;;;33.30;19.20;;;;;;;;;;5145964;27;20429;-75
2022/01/19 07:00:54;;;;;;;36.73;19.67;;;;;;;;;;5147337;27;21055;-76
2022/01/19 07:03:22;;;;;;;37.17;20.80;;;;;;;;;;5145366;27;20440;-76
2022/01/19 07:05:50;;;;;;;40.63;21.57;;;;;;;;;;5147852;27;20465;-76
2022/01/19 07:08:18;;;;;;;35.97;20.27;;;;;;;;;;5148473;27;20426;-76
2022/01/19 07:10:46;;;;;;;36.03;19.73;;;;;;;;;;5148633;27;20437;-76
2022/01/19 07:13:17;;;;;;;33.70;19.70;;;;;;;;;;5146693;27;20517;-76
2022/01/19 07:15:45;;;;;;;38.17;19.90;;;;;;;;;;5145875;27;20513;-74
2022/01/19 07:18:13;;;;;;;45.57;21.63;;;;;;;;;;5146388;27;20506;-75
2022/01/19 07:20:41;;;;;;;40.70;21.70;;;;;;;;;;5148925;27;20968;-75
2022/01/19 07:23:09;;;;;;;32.47;18.40;;;;;;;;;;5148752;27;20512;-75
2022/01/19 07:25:37;;;;;;;46.40;22.90;;;;;;;;;;5146492;27;20545;-75
2022/01/19 07:28:08;;;;;;;41.90;21.50;;;;;;;;;;5148492;27;20555;-75
2022/01/19 07:30:37;;;;;;;44.37;22.53;;;;;;;;;;5138585;27;20947;-71
2022/01/19 07:33:06;;;;;;;45.50;22.53;;;;;;;;;;5136953;27;20438;-70
2022/01/19 07:35:34;;;;;;;47.93;23.27;;;;;;;;;;5138215;27;20444;-70
2022/01/19 07:38:02;;;;;;;44.10;21.70;;;;;;;;;;5144015;27;20438;-70
2022/01/19 07:40:36;;;;;;;41.90;21.13;;;;;;;;;;5139289;27;20484;-71
2022/01/19 07:43:04;;;;;;;38.33;18.80;;;;;;;;;;5125616;27;20441;-71
2022/01/19 07:45:31;;;;;;;43.30;22.40;;;;;;;;;;5138860;27;20450;-71
2022/01/19 07:48:01;;;;;;;36.77;20.00;;;;;;;;;;5138940;27;20449;-70
2022/01/19 07:50:29;;;;;;;48.83;25.50;;;;;;;;;;5138607;27;20466;-71
2022/01/19 07:52:58;;;;;;;48.97;23.60;;;;;;;;;;5138925;27;20510;-70
2022/01/19 07:55:26;;;;;;;47.83;23.83;;;;;;;;;;5141516;27;20453;-70
2022/01/19 07:57:54;;;;;;;53.57;23.93;;;;;;;;;;5127700;27;20894;-69
2022/01/19 08:00:22;;;;;;;54.37;25.23;;;;;;;;;;5138333;27;20477;-69
2022/01/19 08:02:50;;;;;;;51.03;25.83;;;;;;;;;;5138515;27;20624;-71
2022/01/19 08:05:20;;;;;;;42.73;21.83;;;;;;;;;;5138546;27;20449;-71
2022/01/19 08:07:48;;;;;;;48.30;21.10;;;;;;;;;;5138498;27;20457;-71
2022/01/19 08:10:16;;;;;;;46.43;22.60;;;;;;;;;;5138546;27;20446;-71
2022/01/19 08:12:44;;;;;;;51.03;22.77;;;;;;;;;;5138735;27;20437;-72
2022/01/19 08:15:13;;;;;;;50.20;21.63;;;;;;;;;;5138569;27;20441;-71
2022/01/19 08:17:41;;;;;;;50.23;23.10;;;;;;;;;;5138564;27;20975;-70
2022/01/19 08:20:10;;;;;;;56.20;24.53;;;;;;;;;;5138259;27;20537;-71
2022/01/19 08:22:39;;;;;;;49.90;24.10;;;;;;;;;;5138213;27;20445;-70
2022/01/19 08:25:08;;;;;;;43.30;23.53;;;;;;;;;;5147396;27;20465;-71
2022/01/19 08:27:36;;;;;;;50.00;23.03;;;;;;;;;;5138369;27;20462;-71
2022/01/19 08:30:05;;;;;;;42.60;22.37;;;;;;;;;;5138136;27;20525;-71
2022/01/19 08:32:34;;;;;;;46.00;22.10;;;;;;;;;;5137853;28;20441;-71
2022/01/19 08:35:02;;;;;;;46.80;24.43;;;;;;;;;;5138168;28;20458;-71
2022/01/19 08:37:30;;;;;;;43.50;21.47;;;;;;;;;;5138333;28;20541;-72
2022/01/19 08:40:00;;;;;;;46.43;22.77;;;;;;;;;;5138375;28;20552;-71
2022/01/19 08:42:29;;;;;;;47.33;23.90;;;;;;;;;;5138426;28;20485;-71
2022/01/19 08:44:58;;;;;;;44.33;22.23;;;;;;;;;;5138252;28;20454;-72
2022/01/19 08:47:26;;;;;;;49.17;23.50;;;;;;;;;;5137616;28;20486;-71
2022/01/19 08:49:54;;;;;;;46.67;22.83;;;;;;;;;;5137889;28;20501;-71
2022/01/19 08:52:23;;;;;;;46.37;24.37;;;;;;;;;;5138048;28;20510;-71
2022/01/19 08:54:51;;;;;;;44.77;23.13;;;;;;;;;;5137864;28;20438;-71
2022/01/19 08:57:20;;;;;;;38.60;19.37;;;;;;;;;;5137998;28;20556;-71
2022/01/19 08:59:48;;;;;;;33.73;20.73;;;;;;;;;;5137800;28;20465;-71
2022/01/19 09:02:16;;;;;;;48.73;23.13;;;;;;;;;;5137768;28;20478;-71
2022/01/19 09:04:44;;;;;;;37.00;21.07;;;;;;;;;;5138004;28;20948;-72
2022/01/19 09:07:14;;;;;;;41.33;21.57;;;;;;;;;;5138017;28;20465;-71
2022/01/19 09:09:42;;;;;;;43.87;22.57;;;;;;;;;;5137977;28;20955;-72
2022/01/19 09:12:10;;;;;;;44.23;23.40;;;;;;;;;;5138203;28;20511;-73
2022/01/19 09:14:40;;;;;;;46.97;22.90;;;;;;;;;;5138453;28;20449;-73
2022/01/19 09:17:08;;;;;;;40.83;22.33;;;;;;;;;;5137788;28;20998;-73
2022/01/19 09:19:39;;;;;;;42.40;22.27;;;;;;;;;;5137740;28;20540;-73
2022/01/19 09:22:07;;;;;;;40.60;21.43;;;;;;;;;;5138247;28;20524;-73
2022/01/19 09:24:35;;;;;;;45.50;23.10;;;;;;;;;;5140725;27;20443;-73
2022/01/19 09:27:03;;;;;;;47.30;25.10;;;;;;;;;;5140886;27;20470;-73
2022/01/19 09:29:32;;;;;;;44.07;23.90;;;;;;;;;;5122030;28;20450;-73
2022/01/19 09:32:03;;;;;;;47.47;21.30;;;;;;;;;;5137036;28;20524;-72
2022/01/19 09:34:31;;;;;;;44.97;21.53;;;;;;;;;;5137422;28;20460;-73
2022/01/19 09:36:59;;;;;;;41.50;21.47;;;;;;;;;;5137891;28;20549;-73
2022/01/19 09:39:27;;;;;;;47.07;23.03;;;;;;;;;;5140377;27;20449;-73
2022/01/19 09:41:55;;;;;;;42.73;22.27;;;;;;;;;;5141330;27;20999;-71
2022/01/19 09:44:24;;;;;;;43.93;24.17;;;;;;;;;;5141473;27;20457;-73
2022/01/19 09:46:53;;;;;;;47.87;23.07;;;;;;;;;;5140824;27;20968;-73
2022/01/19 09:49:23;;;;;;;39.30;22.67;;;;;;;;;;5141046;27;20485;-74
2022/01/19 09:51:53;;;;;;;43.60;23.53;;;;;;;;;;5141257;27;20508;-74
2022/01/19 09:54:22;;;;;;;43.70;22.67;;;;;;;;;;5141105;27;20477;-73
2022/01/19 09:56:50;;;;;;;39.10;23.13;;;;;;;;;;5145217;27;20462;-73
2022/01/19 09:59:18;;;;;;;41.70;22.53;;;;;;;;;;5139815;27;20513;-73
2022/01/19 10:01:50;;;;;;;45.73;23.87;;;;;;;;;;5137422;27;20495;-72
2022/01/19 10:04:19;;;;;;;38.87;21.47;;;;;;;;;;5129140;27;20434;-72
2022/01/19 10:06:48;;;;;;;41.07;22.13;;;;;;;;;;5138778;27;20470;-71
2022/01/19 10:09:25;;;;;;;42.83;22.90;;;;;;;;;;5139065;27;20452;-72
2022/01/19 10:17:40;;;;;;;39.73;21.53;;;;;;;;;;5149273;27;20453;-70
2022/01/19 10:20:20;;;;;;;42.77;22.37;;;;;;;;;;5147043;27;20456;-71
2022/01/19 10:22:55;;;;;;;36.40;20.30;;;;;;;;;;5146627;27;20509;-67
2022/01/19 10:25:22;;;;;;;39.00;22.37;;;;;;;;;;5148771;27;20794;-68
2022/01/19 10:27:50;;;;;;;333.03;152.40;;;;;;;;;;5147832;27;20450;-73
2022/01/19 10:30:21;;;;;;;141.53;72.60;;;;;;;;;;5144195;27;20785;-73
2022/01/19 10:32:50;;;;;;;42.73;24.87;;;;;;;;;;5149133;27;20809;-73
2022/01/19 10:35:20;;;;;;;44.93;25.17;;;;;;;;;;5143772;27;20512;-73
2022/01/19 10:37:49;;;;;;;43.97;23.87;;;;;;;;;;5145878;27;20460;-74
2022/01/19 10:40:19;;;;;;;41.87;21.10;;;;;;;;;;5149236;27;20434;-74
2022/01/19 10:42:47;;;;;;;43.27;21.93;;;;;;;;;;5145652;27;20472;-74
2022/01/19 10:45:16;;;;;;;45.37;21.63;;;;;;;;;;5148436;27;20520;-74
2022/01/19 10:47:46;;;;;;;48.57;21.40;;;;;;;;;;5147934;27;20977;-74
2022/01/19 10:50:15;;;;;;;39.67;21.60;;;;;;;;;;5146908;27;20469;-74
2022/01/19 10:52:44;;;;;;;43.87;24.10;;;;;;;;;;5148115;27;20876;-74
2022/01/19 10:55:13;;;;;;;44.37;24.63;;;;;;;;;;5147891;27;20465;-74
2022/01/19 10:57:43;;;;;;;57.93;23.80;;;;;;;;;;5148513;27;20457;-73
2022/01/19 11:00:19;;;;;;;47.60;25.07;;;;;;;;;;5144191;27;20798;-74
2022/01/19 11:02:47;;;;;;;49.37;24.73;;;;;;;;;;5145836;27;20473;-74
2022/01/19 11:05:16;;;;;;;43.40;23.90;;;;;;;;;;5145438;27;20434;-72
2022/01/19 11:07:44;;;;;;;53.90;29.87;;;;;;;;;;5145994;27;20462;-73
2022/01/19 11:10:17;;;;;;;39.93;23.50;;;;;;;;;;5145326;27;20446;-73
2022/01/19 11:12:48;;;;;;;41.30;22.30;;;;;;;;;;5147485;27;20801;-71
2022/01/19 11:15:18;;;;;;;44.77;24.07;;;;;;;;;;5147753;27;20539;-73
2022/01/19 11:17:46;;;;;;;47.20;23.17;;;;;;;;;;5145138;27;20460;-73
2022/01/19 11:20:16;;;;;;;48.33;23.97;;;;;;;;;;5144517;27;20442;-73
2022/01/19 11:22:50;;;;;;;45.33;22.80;;;;;;;;;;5147563;27;20838;-73
2022/01/19 11:25:22;;;;;;;37.67;21.60;;;;;;;;;;5143539;27;20425;-74
2022/01/19 11:28:12;;;;;;;40.73;19.63;;;;;;;;;;5147453;27;20442;-75
2022/01/19 11:30:46;;;;;;;41.10;22.60;;;;;;;;;;5147489;27;20520;-70
2022/01/19 11:33:16;;;;;;;35.37;19.77;;;;;;;;;;5147217;27;20440;-70
2022/01/19 11:35:46;;;;;;;37.27;20.57;;;;;;;;;;5138479;27;20461;-67
2022/01/19 11:38:34;;;;;;;33.63;18.93;;;;;;;;;;5142371;27;20434;-66
2022/01/19 11:41:03;;;;;;;36.07;20.13;;;;;;;;;;5153323;27;20433;-72
2022/01/19 11:43:32;;;;;;;27.80;16.40;;;;;;;;;;5139990;27;20481;-70
2022/01/19 11:46:03;;;;;;;29.17;17.00;;;;;;;;;;5135697;27;20472;-70
2022/01/19 11:48:35;;;;;;;34.27;17.80;;;;;;;;;;5139408;27;20920;-72
2022/01/19 11:51:24;;;;;;;35.87;21.03;;;;;;;;;;5134944;27;20557;-68
2022/01/19 11:54:04;;;;;;;35.87;19.63;;;;;;;;;;5129367;27;20446;-73
2022/01/19 11:56:33;;;;;;;32.83;20.13;;;;;;;;;;5138352;27;20457;-73
2022/01/19 11:59:05;;;;;;;41.67;21.57;;;;;;;;;;5131911;27;20438;-73
2022/01/19 12:01:33;;;;;;;33.73;19.17;;;;;;;;;;5135778;27;20939;-73
2022/01/19 12:04:15;;;;;;;40.87;20.80;;;;;;;;;;5139777;27;20996;-74
2022/01/19 12:06:44;;;;;;;35.67;19.47;;;;;;;;;;5137787;27;20479;-74
2022/01/19 12:09:14;;;;;;;34.47;18.27;;;;;;;;;;5138393;27;20810;-74
2022/01/19 12:11:49;;;;;;;33.07;19.73;;;;;;;;;;5139056;27;20520;-73
2022/01/19 12:14:22;;;;;;;35.67;20.67;;;;;;;;;;5138725;27;20486;-73
2022/01/19 12:16:59;;;;;;;37.07;18.97;;;;;;;;;;5137979;27;20960;-72
2022/01/19 12:19:29;;;;;;;35.10;18.53;;;;;;;;;;5131493;27;20493;-73
2022/01/19 12:22:05;;;;;;;36.73;19.00;;;;;;;;;;5138472;27;20437;-73
2022/01/19 12:24:37;;;;;;;35.13;19.20;;;;;;;;;;5137707;27;20484;-72
2022/01/19 12:27:10;;;;;;;36.40;19.53;;;;;;;;;;5136490;27;20512;-72
2022/01/19 12:29:52;;;;;;;35.67;19.80;;;;;;;;;;5138327;27;20530;-73
2022/01/19 12:32:40;;;;;;;32.37;19.33;;;;;;;;;;5137669;27;20558;-73
2022/01/19 12:35:23;;;;;;;39.57;20.70;;;;;;;;;;5138067;27;20473;-73
2022/01/19 12:37:52;;;;;;;44.17;23.23;;;;;;;;;;5142982;27;20450;-73
2022/01/19 12:40:44;;;;;;;51.10;25.70;;;;;;;;;;5142133;27;20437;-72
2022/01/19 12:43:14;;;;;;;46.57;28.30;;;;;;;;;;5132903;27;20508;-74
2022/01/19 12:45:49;;;;;;;55.80;27.17;;;;;;;;;;5128739;28;20913;-73
2022/01/19 12:48:32;;;;;;;74.47;33.90;;;;;;;;;;5130231;28;20452;-73
2022/01/19 12:51:00;;;;;;;54.13;26.83;;;;;;;;;;5123931;28;20461;-72
2022/01/19 12:53:29;;;;;;;55.67;28.20;;;;;;;;;;5130946;28;20445;-71
2022/01/19 12:55:58;;;;;;;70.57;33.47;;;;;;;;;;5132585;28;20500;-70
2022/01/19 12:58:28;;;;;;;62.77;29.67;;;;;;;;;;5138665;27;20853;-72
2022/01/19 13:01:05;;;;;;;55.77;29.67;;;;;;;;;;5144010;27;20516;-72
2022/01/19 13:03:35;;;;;;;57.60;28.13;;;;;;;;;;5143376;27;21071;-72
2022/01/19 13:06:05;;;;;;;60.63;30.77;;;;;;;;;;5137665;28;20521;-72
2022/01/19 13:08:37;;;;;;;54.33;28.50;;;;;;;;;;5137867;28;20438;-72
2022/01/19 13:11:19;;;;;;;57.03;28.97;;;;;;;;;;5138011;28;20441;-72
2022/01/19 13:13:49;;;;;;;49.27;26.00;;;;;;;;;;5139928;27;20433;-72
2022/01/19 13:16:47;;;;;;;54.57;27.53;;;;;;;;;;5131267;27;20500;-70
2022/01/19 13:19:18;;;;;;;50.57;27.03;;;;;;;;;;5075068;28;20459;-69
2022/01/19 13:21:48;;;;;;;59.77;27.07;;;;;;;;;;5134091;27;20931;-71
2022/01/19 13:24:19;;;;;;;53.07;28.37;;;;;;;;;;5150693;27;20883;-71
2022/01/19 13:26:49;;;;;;;53.83;28.37;;;;;;;;;;5142969;27;20493;-72
2022/01/19 13:29:27;;;;;;;58.83;28.23;;;;;;;;;;5148476;27;20444;-71
2022/01/19 13:32:02;;;;;;;53.63;25.70;;;;;;;;;;5147082;27;20445;-70
2022/01/19 13:34:32;;;;;;;55.93;28.17;;;;;;;;;;5147299;27;20468;-70
2022/01/19 13:37:02;;;;;;;53.30;26.33;;;;;;;;;;5139048;27;20493;-70
2022/01/19 13:39:33;;;;;;;55.97;28.00;;;;;;;;;;5130017;27;20502;-70
2022/01/19 13:42:03;;;;;;;59.87;28.70;;;;;;;;;;5132774;27;20490;-70
2022/01/19 13:44:38;;;;;;;51.73;25.83;;;;;;;;;;5131697;27;20992;-70
2022/01/19 13:47:10;;;;;;;46.80;23.50;;;;;;;;;;5147025;27;20970;-69
2022/01/19 13:49:41;;;;;;;52.10;26.40;;;;;;;;;;5149220;27;20458;-69
2022/01/19 13:52:10;;;;;;;48.70;23.00;;;;;;;;;;5149748;27;20468;-72
2022/01/19 13:54:40;;;;;;;47.47;23.03;;;;;;;;;;5149280;27;20426;-72
2022/01/19 13:57:08;;;;;;;50.03;24.17;;;;;;;;;;5145499;27;20453;-70
2022/01/19 13:59:36;;;;;;;43.20;23.33;;;;;;;;;;5148561;27;20517;-71
2022/01/19 14:02:13;;;;;;;43.27;25.57;;;;;;;;;;5149250;27;20437;-72
2022/01/19 14:04:51;;;;;;;50.20;26.37;;;;;;;;;;5147073;27;20499;-72
2022/01/19 14:07:19;;;;;;;56.07;25.57;;;;;;;;;;5134220;27;20465;-72
2022/01/19 14:09:48;;;;;;;52.30;26.37;;;;;;;;;;5141000;27;20450;-72
2022/01/19 14:12:19;;;;;;;49.33;24.73;;;;;;;;;;5140662;27;20449;-71
2022/01/19 14:14:56;;;;;;;53.90;27.00;;;;;;;;;;5137334;27;20857;-71
2022/01/19 14:17:26;;;;;;;57.57;28.07;;;;;;;;;;5140362;27;20472;-71
2022/01/19 14:19:55;;;;;;;54.70;25.20;;;;;;;;;;5145767;27;20441;-71
2022/01/19 14:22:24;;;;;;;48.33;24.90;;;;;;;;;;5147395;27;20430;-71
2022/01/19 14:24:54;;;;;;;44.23;25.47;;;;;;;;;;5143836;27;20481;-73
2022/01/19 14:27:46;;;;;;;45.30;24.67;;;;;;;;;;5149551;27;20813;-68
2022/01/19 14:30:20;;;;;;;46.80;23.17;;;;;;;;;;5145695;27;20521;-68
2022/01/19 14:32:49;;;;;;;36.23;18.90;;;;;;;;;;5146400;27;20442;-68
2022/01/19 14:35:26;;;;;;;45.83;22.90;;;;;;;;;;5142509;27;20501;-66
2022/01/19 14:37:56;;;;;;;38.30;22.50;;;;;;;;;;5143908;27;20487;-70
2022/01/19 14:40:24;;;;;;;37.00;20.87;;;;;;;;;;5145985;27;20525;-69
2022/01/19 14:42:53;;;;;;;37.63;21.63;;;;;;;;;;5140147;27;21025;-70
2022/01/19 14:45:25;;;;;;;50.60;21.80;;;;;;;;;;5139471;27;20572;-72
2022/01/19 14:47:54;;;;;;;45.33;22.30;;;;;;;;;;5139645;27;20489;-72
2022/01/19 14:50:24;;;;;;;42.47;19.93;;;;;;;;;;5139666;27;20476;-73
2022/01/19 14:52:55;;;;;;;44.00;20.87;;;;;;;;;;5139812;27;20445;-71
2022/01/19 14:55:24;;;;;;;34.57;18.33;;;;;;;;;;5138552;27;20433;-71
2022/01/19 14:57:52;;;;;;;37.67;20.60;;;;;;;;;;5135611;27;20477;-72
2022/01/19 15:00:21;;;;;;;40.13;20.43;;;;;;;;;;5139765;27;20495;-71
2022/01/19 15:02:56;;;;;;;40.03;20.87;;;;;;;;;;5139459;27;20480;-71
2022/01/19 15:05:25;;;;;;;34.67;19.30;;;;;;;;;;5139685;27;20619;-70
2022/01/19 15:07:55;;;;;;;34.77;19.17;;;;;;;;;;5139569;27;20462;-69
2022/01/19 15:10:23;;;;;;;37.80;19.73;;;;;;;;;;5139587;27;20536;-69
2022/01/19 15:12:53;;;;;;;36.83;19.33;;;;;;;;;;5131235;27;20449;-69
2022/01/19 15:15:23;;;;;;;39.23;20.73;;;;;;;;;;5139317;27;20473;-69
2022/01/19 15:17:52;;;;;;;39.27;19.07;;;;;;;;;;5138844;27;20465;-72
2022/01/19 15:20:20;;;;;;;36.27;20.10;;;;;;;;;;5133183;27;20518;-67
2022/01/19 15:22:48;;;;;;;41.73;21.63;;;;;;;;;;5139328;27;20878;-70
2022/01/19 15:25:18;;;;;;;39.37;19.47;;;;;;;;;;5143520;27;20521;-69
2022/01/19 15:27:47;;;;;;;37.73;20.77;;;;;;;;;;5130433;27;21039;-71
2022/01/19 15:30:15;;;;;;;39.47;19.33;;;;;;;;;;5138947;27;20457;-70
2022/01/19 15:32:43;;;;;;;41.17;19.67;;;;;;;;;;5138842;27;20441;-70
2022/01/19 15:35:12;;;;;;;43.37;20.57;;;;;;;;;;5138546;27;20521;-68
2022/01/19 15:37:40;;;;;;;37.67;20.60;;;;;;;;;;5133619;27;20545;-69
2022/01/19 15:40:12;;;;;;;38.60;20.40;;;;;;;;;;5144595;27;20549;-71
2022/01/19 15:43:02;;;;;;;38.00;20.10;;;;;;;;;;5145836;27;20441;-71